Terminal Aerodrome Forecast
Issued by NWS

Home | Current Version | Previous Version | Text Only | Print | Product List | Glossary On
Versions: 1 2 3 4 5 6 7 8 9 10 11 12 13 14 15 16
842
FTUS41 KPBZ 072336
TAFDUJ
TAF
KDUJ 072336Z 0800/0824 16005KT P6SM BKN250
     FM082000 14005KT 6SM -RASN OVC035
     FM082200 16005KT 2SM -SN OVC020=

USA.gov is the U.S. government's official web portal to all federal, state and local government web resources and services.